Time;durP1;ratioP1;P1;durP2;ratioP2;P2;SDS_P1;SDS_P2;PMS_P1;PMS_P2;Temp;Humidity;BMP_temperature;BMP_pressure;BME280_temperature;BME280_humidity;BME280_pressure;Samples;Min_cycle;Max_cycle;Signal;HPM_P1;HPM_P2
2022/01/12 00:00:27;;;;;;;;;;;0.10;76.00;;;;;;5025400;28;87121;-41
2022/01/12 00:02:53;;;;;;;;;;;0.10;76.30;;;;;;5025564;28;88909;-41
2022/01/12 00:05:19;;;;;;;;;;;0.10;76.30;;;;;;5027949;28;89644;-41
2022/01/12 00:07:47;;;;;;;;;;;0.10;76.30;;;;;;5025181;28;88744;-41
2022/01/12 00:10:13;;;;;;;;;;;0.00;76.30;;;;;;5024889;28;89255;-41
2022/01/12 00:12:39;;;;;;;;;;;0.00;76.50;;;;;;5025219;28;86815;-41
2022/01/12 00:15:04;;;;;;;;;;;0.00;76.50;;;;;;5026043;28;87299;-41
2022/01/12 00:17:30;;;;;;;;;;;0.00;76.50;;;;;;5023469;28;88449;-41
2022/01/12 00:19:55;;;;;;;;;;;0.00;76.30;;;;;;5025089;28;87142;-41
2022/01/12 00:22:21;;;;;;;;;;;0.10;76.30;;;;;;5024783;28;87792;-41
2022/01/12 00:33:11;;;;;;;;;;;0.00;76.30;;;;;;5025216;28;86945;-41
2022/01/12 00:35:37;;;;;;;;;;;0.00;76.10;;;;;;5024620;28;88808;-41
2022/01/12 00:38:03;;;;;;;;;;;0.00;76.10;;;;;;5024568;28;88055;-41
2022/01/12 00:40:29;;;;;;;;;;;0.00;76.00;;;;;;5025123;28;86440;-41
2022/01/12 00:42:54;;;;;;;;;;;-0.10;76.20;;;;;;5025052;28;88147;-41
2022/01/12 00:45:20;;;;;;;;;;;-0.10;76.40;;;;;;5024514;28;89700;-41
2022/01/12 00:47:46;;;;;;;;;;;-0.10;76.20;;;;;;5026958;28;88035;-41
2022/01/12 00:50:12;;;;;;;;;;;-0.10;76.30;;;;;;5024131;28;88673;-41
2022/01/12 00:52:37;;;;;;;;;;;-0.10;76.30;;;;;;5024750;28;87188;-41
2022/01/12 00:55:03;;;;;;;;;;;0.00;76.30;;;;;;5024607;28;88890;-41
2022/01/12 00:57:30;;;;;;;;;;;-0.10;76.10;;;;;;5024175;28;89239;-41
2022/01/12 00:59:55;;;;;;;;;;;-0.10;76.10;;;;;;5024488;28;87229;-41
2022/01/12 01:02:21;;;;;;;;;;;-0.10;76.40;;;;;;5024472;28;88979;-41
2022/01/12 01:04:46;;;;;;;;;;;-0.10;76.50;;;;;;5024444;28;88657;-41
2022/01/12 01:07:12;;;;;;;;;;;-0.10;76.50;;;;;;5024501;28;86867;-41
2022/01/12 01:09:43;;;;;;;;;;;-0.10;76.40;;;;;;5026897;28;88981;-41
2022/01/12 01:12:08;;;;;;;;;;;-0.10;76.30;;;;;;5023774;28;87891;-41
2022/01/12 01:14:47;;;;;;;;;;;-0.20;76.60;;;;;;5024328;28;89885;-41
2022/01/12 01:25:32;;;;;;;;;;;-0.10;76.30;;;;;;5023334;28;87325;-41
2022/01/12 01:28:02;;;;;;;;;;;-0.10;76.10;;;;;;5023660;28;87177;-41
2022/01/12 01:30:27;;;;;;;;;;;-0.20;76.20;;;;;;5024635;28;88811;-41
2022/01/12 01:32:54;;;;;;;;;;;-0.20;76.10;;;;;;5026735;28;89448;-41
2022/01/12 01:35:19;;;;;;;;;;;-0.20;76.20;;;;;;5024149;28;88786;-41
2022/01/12 01:37:45;;;;;;;;;;;-0.20;75.90;;;;;;5022826;28;90124;-41
2022/01/12 01:40:11;;;;;;;;;;;-0.10;75.80;;;;;;5023849;28;87227;-41
2022/01/12 01:43:24;;;;;;;;;;;-0.10;76.00;;;;;;5023894;28;89267;-41
2022/01/12 01:53:44;;;;;;;;;;;-0.20;75.60;;;;;;5012231;28;87438;-41
2022/01/12 01:56:10;;;;;;;;;;;-0.20;75.70;;;;;;5027147;28;86263;-41
2022/01/12 01:58:35;;;;;;;;;;;-0.20;75.60;;;;;;5023582;28;88108;-41
2022/01/12 02:01:01;;;;;;;;;;;-0.20;75.60;;;;;;5023793;28;87140;-41
2022/01/12 02:03:29;;;;;;;;;;;-0.20;75.60;;;;;;5023294;28;89141;-41
2022/01/12 02:05:55;;;;;;;;;;;-0.20;75.60;;;;;;5023469;28;89464;-41
2022/01/12 02:08:20;;;;;;;;;;;-0.20;75.60;;;;;;5023413;28;86895;-41
2022/01/12 02:10:46;;;;;;;;;;;-0.30;75.70;;;;;;5023641;28;87781;-41
2022/01/12 02:13:11;;;;;;;;;;;-0.30;75.80;;;;;;5023038;28;89612;-41
2022/01/12 02:15:39;;;;;;;;;;;-0.30;76.00;;;;;;5023453;28;87132;-41
2022/01/12 02:40:05;;;;;;;;;;;-0.40;75.90;;;;;;5026625;28;86829;-41
2022/01/12 02:42:31;;;;;;;;;;;-0.40;76.10;;;;;;5026789;28;87313;-40
2022/01/12 02:50:44;;;;;;;;;;;-0.40;76.10;;;;;;5027026;28;87057;-40
2022/01/12 02:55:55;;;;;;;;;;;-0.50;76.20;;;;;;5025785;28;88228;-40
2022/01/12 02:58:20;;;;;;;;;;;-0.40;76.00;;;;;;5026475;28;87159;-40
2022/01/12 03:03:27;;;;;;;;;;;-0.50;75.90;;;;;;5028408;28;87225;-40
2022/01/12 03:06:04;;;;;;;;;;;-0.40;76.00;;;;;;5026352;28;89359;-41
2022/01/12 03:08:36;;;;;;;;;;;-0.40;75.70;;;;;;5025860;28;89479;-40
2022/01/12 03:11:03;;;;;;;;;;;-0.50;75.40;;;;;;5026203;28;86922;-40
2022/01/12 03:13:29;;;;;;;;;;;-0.40;75.70;;;;;;5026903;28;87956;-41
2022/01/12 03:15:55;;;;;;;;;;;-0.50;75.50;;;;;;5025908;28;89811;-40
2022/01/12 03:18:20;;;;;;;;;;;-0.50;75.70;;;;;;5026207;28;87132;-41
2022/01/12 03:20:46;;;;;;;;;;;-0.50;75.50;;;;;;5025407;28;88563;-40
2022/01/12 03:23:13;;;;;;;;;;;-0.50;75.80;;;;;;5025729;28;89387;-41
2022/01/12 03:25:39;;;;;;;;;;;-0.50;75.60;;;;;;5029007;28;87133;-41
2022/01/12 03:28:07;;;;;;;;;;;-0.50;75.80;;;;;;5025589;28;88441;-41
2022/01/12 03:30:40;;;;;;;;;;;-0.50;75.90;;;;;;5025806;28;87203;-41
2022/01/12 03:33:17;;;;;;;;;;;-0.50;75.60;;;;;;5025860;28;87777;-41
2022/01/12 04:08:58;;;;;;;;;;;-0.70;75.90;;;;;;5025680;28;86589;-41
2022/01/12 04:11:23;;;;;;;;;;;-0.70;76.10;;;;;;5025189;28;87186;-40
2022/01/12 04:13:50;;;;;;;;;;;-0.60;75.80;;;;;;5025271;28;88829;-41
2022/01/12 04:16:16;;;;;;;;;;;-0.70;75.90;;;;;;5027355;28;88098;-41
2022/01/12 04:18:42;;;;;;;;;;;-0.70;75.90;;;;;;5025089;28;89809;-41
2022/01/12 04:21:09;;;;;;;;;;;-0.70;75.90;;;;;;5024636;28;89435;-40
2022/01/12 04:23:36;;;;;;;;;;;-0.70;76.00;;;;;;5023853;28;86942;-41
2022/01/12 04:26:10;;;;;;;;;;;-0.70;75.90;;;;;;5025006;28;88860;-41
2022/01/12 04:28:37;;;;;;;;;;;-0.70;75.80;;;;;;5024971;28;90116;-41
2022/01/12 04:31:03;;;;;;;;;;;-0.70;76.00;;;;;;5025145;28;87050;-40
2022/01/12 04:33:30;;;;;;;;;;;-0.70;75.90;;;;;;5025523;28;88970;-40
2022/01/12 04:35:56;;;;;;;;;;;-0.70;75.90;;;;;;5024316;28;89963;-40
2022/01/12 04:38:23;;;;;;;;;;;-0.70;75.80;;;;;;5027744;28;86996;-40
2022/01/12 04:40:49;;;;;;;;;;;-0.70;75.80;;;;;;5023259;28;89857;-41
2022/01/12 04:43:15;;;;;;;;;;;-0.70;75.70;;;;;;5024970;28;86941;-40
2022/01/12 04:50:42;;;;;;;;;;;-0.80;76.10;;;;;;5024717;28;86911;-41
2022/01/12 04:53:08;;;;;;;;;;;-0.80;76.20;;;;;;5024592;28;88955;-41
2022/01/12 04:55:34;;;;;;;;;;;-0.80;76.10;;;;;;5024247;28;89772;-41
2022/01/12 04:58:00;;;;;;;;;;;-0.80;76.20;;;;;;5027996;28;86317;-41
2022/01/12 05:00:28;;;;;;;;;;;-0.80;76.10;;;;;;5024327;28;88084;-41
2022/01/12 05:13:53;;;;;;;;;;;-0.90;76.20;;;;;;5024786;28;87076;-41
2022/01/12 05:16:21;;;;;;;;;;;-0.80;76.20;;;;;;5023997;28;89355;-41
2022/01/12 05:18:48;;;;;;;;;;;-0.90;76.10;;;;;;5024263;28;87161;-40
2022/01/12 05:21:14;;;;;;;;;;;-0.90;76.20;;;;;;5026852;27;87097;-40
2022/01/12 05:23:39;;;;;;;;;;;-0.90;76.10;;;;;;5024676;28;86387;-41
2022/01/12 05:26:05;;;;;;;;;;;-0.90;75.90;;;;;;5024002;28;88398;-41
2022/01/12 05:28:31;;;;;;;;;;;-0.90;76.20;;;;;;5023886;28;88387;-40
2022/01/12 05:30:57;;;;;;;;;;;-0.90;76.10;;;;;;5023604;28;87996;-40
2022/01/12 05:33:24;;;;;;;;;;;-0.90;76.10;;;;;;5023917;28;89854;-40
2022/01/12 05:35:51;;;;;;;;;;;-0.90;76.00;;;;;;5023583;28;89338;-41
2022/01/12 05:38:16;;;;;;;;;;;-0.90;76.20;;;;;;5023857;28;87107;-40
2022/01/12 05:40:46;;;;;;;;;;;-1.00;76.30;;;;;;5023463;28;89292;-41
2022/01/12 05:43:12;;;;;;;;;;;-1.00;76.20;;;;;;5026467;28;89481;-40
2022/01/12 05:45:39;;;;;;;;;;;-1.00;76.30;;;;;;5023947;28;87978;-41
2022/01/12 05:50:33;;;;;;;;;;;-1.00;76.30;;;;;;5023971;28;87076;-40
2022/01/12 05:52:59;;;;;;;;;;;-1.00;76.50;;;;;;5023718;28;88907;-40
2022/01/12 05:55:25;;;;;;;;;;;-1.00;76.40;;;;;;5022517;28;89367;-40
2022/01/12 05:57:50;;;;;;;;;;;-1.00;76.30;;;;;;5023673;28;87126;-40
2022/01/12 06:00:17;;;;;;;;;;;-1.00;76.50;;;;;;5023910;28;87554;-40
2022/01/12 06:02:42;;;;;;;;;;;-1.00;76.50;;;;;;5023188;28;89999;-41
2022/01/12 06:05:08;;;;;;;;;;;-1.00;76.30;;;;;;5026559;28;87190;-41
2022/01/12 06:07:34;;;;;;;;;;;-1.00;76.20;;;;;;5023329;28;88047;-40
2022/01/12 06:10:00;;;;;;;;;;;-1.00;76.30;;;;;;5023178;28;87129;-40
2022/01/12 06:12:26;;;;;;;;;;;-1.00;76.40;;;;;;5024112;28;88773;-41
2022/01/12 06:14:51;;;;;;;;;;;-1.00;76.30;;;;;;5021905;28;89038;-41
2022/01/12 06:17:17;;;;;;;;;;;-1.00;76.50;;;;;;5023594;28;87252;-40
2022/01/12 06:19:42;;;;;;;;;;;-1.10;76.30;;;;;;5022829;28;88836;-40
2022/01/12 06:22:08;;;;;;;;;;;-1.10;76.30;;;;;;5023176;28;87992;-40
2022/01/12 06:24:34;;;;;;;;;;;-1.10;76.50;;;;;;5023145;28;87099;-40
2022/01/12 06:27:00;;;;;;;;;;;-1.10;76.40;;;;;;5025945;28;88782;-40
2022/01/12 06:31:53;;;;;;;;;;;-1.10;76.40;;;;;;5023619;28;87348;-40
2022/01/12 06:34:19;;;;;;;;;;;-1.10;76.30;;;;;;5022799;28;88736;-40
2022/01/12 06:36:45;;;;;;;;;;;-1.10;76.30;;;;;;5024026;28;86867;-40
2022/01/12 06:39:11;;;;;;;;;;;-1.10;76.40;;;;;;5023176;28;86903;-40
2022/01/12 06:41:38;;;;;;;;;;;-1.10;76.20;;;;;;5022712;28;87096;-41
2022/01/12 06:44:04;;;;;;;;;;;-1.10;76.20;;;;;;5022486;28;87814;-40
2022/01/12 06:46:31;;;;;;;;;;;-1.10;76.20;;;;;;5025840;28;90033;-40
2022/01/12 06:48:57;;;;;;;;;;;-1.10;76.20;;;;;;5023016;28;86883;-40
2022/01/12 06:51:23;;;;;;;;;;;-1.10;76.00;;;;;;5023101;28;89232;-40
2022/01/12 06:53:49;;;;;;;;;;;-1.10;76.10;;;;;;5022608;28;89898;-40
2022/01/12 06:56:17;;;;;;;;;;;-1.10;76.10;;;;;;5023007;28;87147;-40
2022/01/12 06:58:43;;;;;;;;;;;-1.10;76.00;;;;;;5022945;28;88436;-40
2022/01/12 07:01:09;;;;;;;;;;;-1.10;76.00;;;;;;5023299;28;87277;-40
2022/01/12 07:03:35;;;;;;;;;;;-1.10;76.10;;;;;;5023022;28;87166;-40
2022/01/12 07:06:00;;;;;;;;;;;-1.10;76.10;;;;;;5022774;28;88794;-40
2022/01/12 07:08:26;;;;;;;;;;;-1.10;76.10;;;;;;5023263;28;90493;-40
2022/01/12 07:10:51;;;;;;;;;;;-1.10;75.90;;;;;;5022372;28;89738;-40
2022/01/12 07:13:17;;;;;;;;;;;-1.10;75.50;;;;;;5022513;28;88123;-40
2022/01/12 07:15:43;;;;;;;;;;;-1.10;75.60;;;;;;5022631;28;87247;-40
2022/01/12 07:18:09;;;;;;;;;;;-1.10;75.60;;;;;;5022855;28;89167;-40
2022/01/12 07:20:34;;;;;;;;;;;-1.10;75.80;;;;;;5022370;28;90281;-41
2022/01/12 07:23:00;;;;;;;;;;;-1.10;75.90;;;;;;5022957;28;87278;-40
2022/01/12 07:25:26;;;;;;;;;;;-1.10;75.70;;;;;;5022867;28;88626;-40
2022/01/12 07:27:51;;;;;;;;;;;-1.10;75.70;;;;;;5025445;28;88568;-40
2022/01/12 07:30:17;;;;;;;;;;;-1.10;75.70;;;;;;5029041;28;87208;-40
2022/01/12 07:32:42;;;;;;;;;;;-1.20;75.70;;;;;;5024851;28;89520;-40
2022/01/12 07:35:08;;;;;;;;;;;-1.10;75.70;;;;;;5026019;28;87271;-40
2022/01/12 07:37:34;;;;;;;;;;;-1.20;75.70;;;;;;5025912;28;88927;-40
2022/01/12 07:39:59;;;;;;;;;;;-1.10;75.70;;;;;;5025167;28;89568;-40
2022/01/12 07:42:25;;;;;;;;;;;-1.10;75.60;;;;;;5025314;28;87228;-40
2022/01/12 07:44:58;;;;;;;;;;;-1.10;75.30;;;;;;5025817;28;88490;-40
2022/01/12 07:47:24;;;;;;;;;;;-1.10;75.40;;;;;;5025525;28;89483;-40
2022/01/12 07:49:50;;;;;;;;;;;-1.10;75.40;;;;;;5058665;27;86344;-40
2022/01/12 07:52:15;;;;;;;;;;;-1.10;75.50;;;;;;5028186;28;88053;-40
2022/01/12 07:54:41;;;;;;;;;;;-1.10;75.70;;;;;;5025602;28;87213;-41
2022/01/12 07:57:06;;;;;;;;;;;-1.10;75.60;;;;;;5025053;28;88852;-40
2022/01/12 07:59:32;;;;;;;;;;;-1.10;75.50;;;;;;5025554;28;88130;-40
2022/01/12 08:01:57;;;;;;;;;;;-1.10;75.30;;;;;;5025543;28;86947;-40
2022/01/12 08:04:23;;;;;;;;;;;-1.10;75.50;;;;;;5025813;28;87024;-41
2022/01/12 08:06:48;;;;;;;;;;;-1.10;76.20;;;;;;5024990;28;89659;-40
2022/01/12 08:09:14;;;;;;;;;;;-1.20;75.60;;;;;;5025354;28;87329;-40
2022/01/12 08:11:39;;;;;;;;;;;-1.20;75.50;;;;;;5025662;28;87007;-40
2022/01/12 08:14:05;;;;;;;;;;;-1.10;75.70;;;;;;5028457;28;89202;-40
2022/01/12 08:16:30;;;;;;;;;;;-1.10;75.60;;;;;;5025296;28;87959;-41
2022/01/12 08:18:56;;;;;;;;;;;-1.20;75.60;;;;;;5025135;28;88161;-41
2022/01/12 08:21:23;;;;;;;;;;;-1.20;75.60;;;;;;5024727;28;88111;-40
2022/01/12 08:23:48;;;;;;;;;;;-1.20;75.60;;;;;;5024914;28;89781;-40
2022/01/12 08:26:14;;;;;;;;;;;-1.20;75.70;;;;;;5024764;28;89438;-40
2022/01/12 08:28:40;;;;;;;;;;;-1.20;75.70;;;;;;5025162;28;87205;-40
2022/01/12 08:31:05;;;;;;;;;;;-1.20;75.80;;;;;;5025137;28;88899;-40
2022/01/12 08:33:32;;;;;;;;;;;-1.20;75.80;;;;;;5024724;28;90075;-40
2022/01/12 08:35:57;;;;;;;;;;;-1.20;75.80;;;;;;5027958;28;87125;-40
2022/01/12 08:38:23;;;;;;;;;;;-1.20;75.80;;;;;;5023799;28;88557;-41
2022/01/12 08:40:49;;;;;;;;;;;-1.20;75.90;;;;;;5024724;28;87213;-40
2022/01/12 08:43:14;;;;;;;;;;;-1.20;75.90;;;;;;5024823;28;88772;-40
2022/01/12 08:45:40;;;;;;;;;;;-1.20;75.90;;;;;;5023761;28;89689;-40
2022/01/12 08:48:06;;;;;;;;;;;-1.20;75.90;;;;;;5024758;28;86890;-40
2022/01/12 08:50:31;;;;;;;;;;;-1.20;76.60;;;;;;5024894;28;87457;-40
2022/01/12 08:52:57;;;;;;;;;;;-1.20;76.10;;;;;;5024402;28;88088;-40
2022/01/12 08:55:23;;;;;;;;;;;-1.20;76.10;;;;;;5027522;28;87095;-40
2022/01/12 08:57:50;;;;;;;;;;;-1.20;76.00;;;;;;5024213;28;89405;-40
2022/01/12 09:00:16;;;;;;;;;;;-1.20;76.10;;;;;;5024430;28;87077;-40
2022/01/12 09:02:41;;;;;;;;;;;-1.20;76.10;;;;;;5025151;28;88768;-40
2022/01/12 09:05:07;;;;;;;;;;;-1.20;76.10;;;;;;5024443;28;88249;-40
2022/01/12 09:07:33;;;;;;;;;;;-1.20;76.00;;;;;;5024436;28;86998;-41
2022/01/12 09:09:59;;;;;;;;;;;-1.20;76.00;;;;;;5023737;28;89364;-40
2022/01/12 09:12:25;;;;;;;;;;;-1.20;75.80;;;;;;5023988;28;89670;-40
2022/01/12 09:14:52;;;;;;;;;;;-1.20;75.90;;;;;;5024476;28;86764;-40
2022/01/12 09:17:19;;;;;;;;;;;-1.20;75.80;;;;;;5027106;28;87316;-40
2022/01/12 09:19:45;;;;;;;;;;;-1.20;75.80;;;;;;5024343;28;87187;-40
2022/01/12 09:22:11;;;;;;;;;;;-1.20;75.90;;;;;;5024404;28;87442;-40
2022/01/12 09:24:36;;;;;;;;;;;-1.20;75.80;;;;;;5023922;28;88096;-40
2022/01/12 09:27:02;;;;;;;;;;;-1.20;75.90;;;;;;5024739;28;86170;-41
2022/01/12 09:29:28;;;;;;;;;;;-1.20;75.80;;;;;;5024127;28;87762;-41
2022/01/12 09:31:53;;;;;;;;;;;-1.20;75.90;;;;;;5023972;28;87806;-40
2022/01/12 09:34:19;;;;;;;;;;;-1.20;75.70;;;;;;5023526;28;88166;-40
2022/01/12 09:36:44;;;;;;;;;;;-1.20;75.70;;;;;;5024046;28;90315;-40
2022/01/12 09:39:10;;;;;;;;;;;-1.20;75.80;;;;;;5026593;28;88183;-40
2022/01/12 09:41:36;;;;;;;;;;;-1.20;75.80;;;;;;5023690;28;88810;-40
2022/01/12 09:44:02;;;;;;;;;;;-1.20;75.90;;;;;;5023609;28;89189;-40
2022/01/12 09:46:27;;;;;;;;;;;-1.20;75.80;;;;;;5023974;28;87150;-40
2022/01/12 09:48:53;;;;;;;;;;;-1.20;75.90;;;;;;5023796;28;88895;-41
2022/01/12 09:51:19;;;;;;;;;;;-1.20;75.80;;;;;;5023920;28;88054;-40
2022/01/12 09:53:45;;;;;;;;;;;-1.20;75.80;;;;;;5023576;28;87246;-40
2022/01/12 09:56:18;;;;;;;;;;;-1.20;75.70;;;;;;5023638;28;88610;-41
2022/01/12 09:58:44;;;;;;;;;;;-1.20;75.70;;;;;;5022596;28;90466;-40
2022/01/12 10:01:10;;;;;;;;;;;-1.20;75.70;;;;;;5026694;28;87112;-41
2022/01/12 10:03:36;;;;;;;;;;;-1.20;75.70;;;;;;5023268;28;89332;-40
2022/01/12 10:06:12;;;;;;;;;;;-1.20;75.90;;;;;;5023921;28;87196;-40
2022/01/12 10:08:37;;;;;;;;;;;-1.20;75.80;;;;;;5023494;28;88594;-40
2022/01/12 10:11:07;;;;;;;;;;;-1.20;75.80;;;;;;5023375;28;88460;-40
2022/01/12 10:13:33;;;;;;;;;;;-1.20;75.90;;;;;;5023446;28;87123;-41
2022/01/12 10:16:09;;;;;;;;;;;-1.20;76.00;;;;;;5023953;28;88732;-40
2022/01/12 10:18:43;;;;;;;;;;;-1.20;76.10;;;;;;5023117;28;89444;-40
2022/01/12 10:21:08;;;;;;;;;;;-1.20;76.20;;;;;;5023528;28;87062;-41
2022/01/12 10:23:38;;;;;;;;;;;-1.30;76.40;;;;;;5025324;28;89204;-40
2022/01/12 10:26:03;;;;;;;;;;;-1.30;76.40;;;;;;5023303;28;87150;-40
2022/01/12 10:28:29;;;;;;;;;;;-1.30;76.40;;;;;;5023191;28;89350;-41
2022/01/12 10:30:57;;;;;;;;;;;-1.30;76.50;;;;;;5022812;28;89399;-40
2022/01/12 10:33:24;;;;;;;;;;;-1.30;76.60;;;;;;5023146;28;87139;-41
2022/01/12 10:35:54;;;;;;;;;;;-1.30;76.50;;;;;;5023353;28;87688;-41
2022/01/12 10:38:19;;;;;;;;;;;-1.30;76.50;;;;;;5022864;28;89372;-40
2022/01/12 10:40:46;;;;;;;;;;;-1.30;76.50;;;;;;5023058;28;86496;-40
2022/01/12 10:43:30;;;;;;;;;;;-1.30;76.50;;;;;;5023109;28;88238;-41
2022/01/12 10:45:56;;;;;;;;;;;-1.30;76.50;;;;;;5025503;28;89610;-41
2022/01/12 10:48:23;;;;;;;;;;;-1.30;76.50;;;;;;5022719;28;87880;-41
2022/01/12 10:50:55;;;;;;;;;;;-1.30;76.50;;;;;;5022586;28;89397;-40
2022/01/12 10:53:28;;;;;;;;;;;-1.30;76.60;;;;;;5022886;28;87213;-41
2022/01/12 10:56:00;;;;;;;;;;;-1.30;76.60;;;;;;5023083;28;88940;-41
2022/01/12 10:58:26;;;;;;;;;;;-1.30;76.80;;;;;;5022279;28;89496;-41
2022/01/12 11:00:51;;;;;;;;;;;-1.30;76.70;;;;;;5022990;28;86882;-41
2022/01/12 11:03:18;;;;;;;;;;;-1.30;76.70;;;;;;5026481;28;88694;-41
2022/01/12 11:05:43;;;;;;;;;;;-1.30;76.80;;;;;;5029412;28;89326;-41
2022/01/12 11:08:10;;;;;;;;;;;-1.30;76.70;;;;;;5026400;28;87251;-41
2022/01/12 11:10:36;;;;;;;;;;;-1.30;76.70;;;;;;5026096;28;89637;-41
2022/01/12 11:13:01;;;;;;;;;;;-1.30;76.70;;;;;;5024290;28;88076;-41
2022/01/12 11:15:27;;;;;;;;;;;-1.30;76.80;;;;;;5026210;28;90222;-41
2022/01/12 11:17:53;;;;;;;;;;;-1.30;76.80;;;;;;5026059;28;88116;-41
2022/01/12 11:20:18;;;;;;;;;;;-1.30;76.80;;;;;;5026071;28;86996;-41
2022/01/12 11:22:44;;;;;;;;;;;-1.30;76.70;;;;;;5026202;28;87878;-41
2022/01/12 11:25:20;;;;;;;;;;;-1.20;76.70;;;;;;5025647;28;89384;-41
2022/01/12 11:27:51;;;;;;;;;;;-1.30;76.70;;;;;;5028764;28;87051;-41
2022/01/12 11:30:19;;;;;;;;;;;-1.20;76.80;;;;;;5026302;28;88835;-41
2022/01/12 11:32:54;;;;;;;;;;;-1.20;76.80;;;;;;5026010;28;87116;-41
2022/01/12 11:35:24;;;;;;;;;;;-1.20;76.80;;;;;;5026151;28;88735;-41
2022/01/12 11:37:50;;;;;;;;;;;-1.20;76.80;;;;;;5024923;28;90545;-41
2022/01/12 11:40:15;;;;;;;;;;;-1.20;76.80;;;;;;5025813;28;87160;-41
2022/01/12 11:42:41;;;;;;;;;;;-1.20;76.80;;;;;;5025674;28;87141;-41
2022/01/12 11:45:18;;;;;;;;;;;-1.20;76.80;;;;;;5025472;28;89533;-41
2022/01/12 11:47:44;;;;;;;;;;;-1.20;76.80;;;;;;5025857;28;86884;-41
2022/01/12 11:50:12;;;;;;;;;;;-1.20;76.70;;;;;;5028179;28;88831;-41
2022/01/12 11:52:38;;;;;;;;;;;-1.20;76.80;;;;;;5025484;28;87099;-41
2022/01/12 11:55:10;;;;;;;;;;;-1.20;76.80;;;;;;5025869;28;87972;-41
2022/01/12 11:57:38;;;;;;;;;;;-1.20;76.80;;;;;;5025269;28;89579;-41
2022/01/12 12:00:07;;;;;;;;;;;-1.10;76.70;;;;;;5025758;28;87116;-41
2022/01/12 12:02:40;;;;;;;;;;;-1.10;76.50;;;;;;5024880;28;88807;-41
2022/01/12 12:05:13;;;;;;;;;;;-1.10;76.50;;;;;;5025178;28;89428;-41
2022/01/12 12:07:44;;;;;;;;;;;-1.10;76.40;;;;;;5025300;28;87268;-41
2022/01/12 12:10:11;;;;;;;;;;;-1.10;76.50;;;;;;5025695;28;87383;-41
2022/01/12 12:12:37;;;;;;;;;;;-1.10;76.30;;;;;;5027908;28;89847;-40
2022/01/12 12:15:07;;;;;;;;;;;-1.10;76.20;;;;;;5025710;28;86823;-41
2022/01/12 12:17:34;;;;;;;;;;;-1.10;76.30;;;;;;5025021;28;91144;-41
2022/01/12 12:19:59;;;;;;;;;;;-1.10;76.30;;;;;;5025931;28;86131;-41
2022/01/12 12:22:28;;;;;;;;;;;-1.10;76.30;;;;;;5025295;28;88271;-41
2022/01/12 12:24:58;;;;;;;;;;;-1.10;76.30;;;;;;5025078;28;89519;-41
2022/01/12 12:27:25;;;;;;;;;;;-1.00;76.40;;;;;;5024569;28;88058;-41
2022/01/12 12:29:51;;;;;;;;;;;-1.00;76.20;;;;;;5025108;28;89483;-41
2022/01/12 12:32:18;;;;;;;;;;;-1.10;76.00;;;;;;5024587;28;89786;-41
2022/01/12 12:34:44;;;;;;;;;;;-1.00;76.10;;;;;;5027772;28;87122;-41
2022/01/12 12:37:11;;;;;;;;;;;-1.10;76.10;;;;;;5024632;28;89163;-41
2022/01/12 12:39:38;;;;;;;;;;;-1.00;76.30;;;;;;5025069;28;87202;-41
2022/01/12 12:42:04;;;;;;;;;;;-1.00;76.20;;;;;;5024611;28;87089;-41
2022/01/12 12:44:31;;;;;;;;;;;-1.00;76.20;;;;;;5024959;28;88023;-41
2022/01/12 12:47:13;;;;;;;;;;;-1.00;76.20;;;;;;5024750;28;86938;-41
2022/01/12 12:49:49;;;;;;;;;;;-1.00;76.30;;;;;;5024615;28;88842;-41
2022/01/12 12:52:31;;;;;;;;;;;-1.00;76.20;;;;;;5023936;28;89245;-41
2022/01/12 12:54:58;;;;;;;;;;;-1.00;76.10;;;;;;5024639;28;87080;-41
2022/01/12 12:57:25;;;;;;;;;;;-1.00;76.10;;;;;;5027218;28;88925;-41
2022/01/12 12:59:51;;;;;;;;;;;-1.00;75.90;;;;;;5024475;28;87137;-41
2022/01/12 13:02:17;;;;;;;;;;;-1.00;75.60;;;;;;5024603;28;88887;-41
2022/01/12 13:04:43;;;;;;;;;;;-1.00;75.70;;;;;;5024305;28;88681;-41
2022/01/12 13:07:17;;;;;;;;;;;-1.00;75.70;;;;;;5024492;28;87135;-41
2022/01/12 13:09:43;;;;;;;;;;;-1.00;75.70;;;;;;5024991;28;88497;-41
2022/01/12 13:12:09;;;;;;;;;;;-1.00;75.80;;;;;;5022780;28;89963;-41
2022/01/12 13:14:45;;;;;;;;;;;-1.00;75.70;;;;;;5024482;28;87150;-41
2022/01/12 13:17:11;;;;;;;;;;;-1.00;75.70;;;;;;5026383;28;89079;-41
2022/01/12 13:22:30;;;;;;;;;;;-1.00;75.60;;;;;;5023777;28;87379;-41
2022/01/12 13:24:58;;;;;;;;;;;-1.00;75.50;;;;;;5023112;28;89177;-41
2022/01/12 13:27:23;;;;;;;;;;;-0.90;75.80;;;;;;5024217;28;87096;-41
2022/01/12 13:29:50;;;;;;;;;;;-0.90;75.80;;;;;;5024227;28;88624;-41
2022/01/12 13:32:16;;;;;;;;;;;-1.00;75.60;;;;;;5023802;28;89723;-41
2022/01/12 13:34:43;;;;;;;;;;;-1.00;75.50;;;;;;5024846;28;86122;-41
2022/01/12 13:37:15;;;;;;;;;;;-1.00;75.50;;;;;;5024160;28;88179;-41
2022/01/12 13:39:42;;;;;;;;;;;-1.00;75.70;;;;;;5026341;28;88856;-41
2022/01/12 13:42:08;;;;;;;;;;;-0.90;75.50;;;;;;5023106;28;88873;-41
2022/01/12 13:44:33;;;;;;;;;;;-0.90;75.40;;;;;;5023528;28;88460;-41
2022/01/12 13:47:09;;;;;;;;;;;-0.90;75.50;;;;;;5023719;28;87173;-41
2022/01/12 13:49:35;;;;;;;;;;;-1.00;75.50;;;;;;5024143;28;87524;-41
2022/01/12 13:52:03;;;;;;;;;;;-0.90;75.70;;;;;;5023233;28;88833;-41
2022/01/12 13:54:31;;;;;;;;;;;-0.90;75.70;;;;;;5023798;28;87220;-41
2022/01/12 13:56:57;;;;;;;;;;;-1.00;75.70;;;;;;5023737;28;87763;-41
2022/01/12 13:59:25;;;;;;;;;;;-1.00;75.80;;;;;;5024176;28;87272;-41
2022/01/12 14:01:51;;;;;;;;;;;-1.00;75.70;;;;;;5026506;28;87087;-41
2022/01/12 14:04:29;;;;;;;;;;;-1.00;75.80;;;;;;5023466;28;89686;-41
2022/01/12 14:07:00;;;;;;;;;;;-1.00;75.90;;;;;;5023139;28;87984;-41
2022/01/12 14:09:31;;;;;;;;;;;-1.00;75.90;;;;;;5023784;28;89768;-41
2022/01/12 14:12:06;;;;;;;;;;;-1.00;76.00;;;;;;5023581;28;87114;-41
2022/01/12 14:14:32;;;;;;;;;;;-1.00;76.00;;;;;;5023582;28;86862;-41
2022/01/12 14:16:57;;;;;;;;;;;-1.00;75.90;;;;;;5023341;28;88763;-41
2022/01/12 14:19:23;;;;;;;;;;;-1.00;76.00;;;;;;5023076;28;89705;-41
2022/01/12 14:21:56;;;;;;;;;;;-1.00;76.10;;;;;;5023358;28;87059;-41
2022/01/12 14:24:22;;;;;;;;;;;-1.00;76.10;;;;;;5026400;28;88675;-40
2022/01/12 14:26:47;;;;;;;;;;;-1.00;76.10;;;;;;5023416;28;87116;-41
2022/01/12 14:29:13;;;;;;;;;;;-1.00;75.90;;;;;;5023378;28;88569;-41
2022/01/12 14:31:41;;;;;;;;;;;-1.00;75.80;;;;;;5022092;28;90332;-41
2022/01/12 14:34:07;;;;;;;;;;;-0.90;75.90;;;;;;5023067;28;87185;-41
2022/01/12 14:36:32;;;;;;;;;;;-0.90;75.80;;;;;;5024730;28;87360;-41
2022/01/12 14:38:58;;;;;;;;;;;-0.90;75.80;;;;;;5026591;28;89217;-41
2022/01/12 14:41:24;;;;;;;;;;;-0.90;75.60;;;;;;5026239;28;87114;-41
2022/01/12 14:43:50;;;;;;;;;;;-0.90;75.60;;;;;;5026858;28;88420;-41
2022/01/12 14:46:17;;;;;;;;;;;-0.90;75.50;;;;;;5029208;28;90080;-41
2022/01/12 14:48:42;;;;;;;;;;;-0.90;75.50;;;;;;5027423;28;89255;-41
2022/01/12 14:51:08;;;;;;;;;;;-0.90;75.50;;;;;;5026288;28;89753;-41
2022/01/12 14:53:34;;;;;;;;;;;-0.90;75.50;;;;;;5026771;28;87097;-41
2022/01/12 14:56:00;;;;;;;;;;;-0.90;75.50;;;;;;5025989;28;88451;-41
2022/01/12 14:58:27;;;;;;;;;;;-0.90;75.50;;;;;;5026187;28;89827;-41
2022/01/12 15:00:53;;;;;;;;;;;-0.90;75.50;;;;;;5026516;28;87088;-41
2022/01/12 15:03:19;;;;;;;;;;;-1.00;75.60;;;;;;5026410;28;87377;-41
2022/01/12 15:05:46;;;;;;;;;;;-1.00;75.60;;;;;;5026370;28;87965;-41
2022/01/12 15:08:13;;;;;;;;;;;-0.90;75.70;;;;;;5029233;28;87068;-41
2022/01/12 15:10:38;;;;;;;;;;;-1.00;75.70;;;;;;5025909;28;89234;-41
2022/01/12 15:15:42;;;;;;;;;;;-1.00;75.60;;;;;;5026355;28;87059;-41
2022/01/12 15:18:08;;;;;;;;;;;-0.90;75.40;;;;;;5025711;28;89602;-41
2022/01/12 15:20:33;;;;;;;;;;;-0.90;75.40;;;;;;5025869;28;88097;-41
2022/01/12 15:22:59;;;;;;;;;;;-0.90;75.10;;;;;;5026017;28;88863;-41
2022/01/12 15:25:26;;;;;;;;;;;-0.90;74.60;;;;;;5025758;28;89770;-41
2022/01/12 15:27:52;;;;;;;;;;;-0.90;74.70;;;;;;5029099;28;87159;-41
2022/01/12 15:30:18;;;;;;;;;;;-0.90;74.90;;;;;;5025503;28;89575;-41
2022/01/12 15:32:44;;;;;;;;;;;-0.90;75.10;;;;;;5026299;28;87095;-41
2022/01/12 15:35:10;;;;;;;;;;;-0.90;75.00;;;;;;5026280;28;88842;-41
2022/01/12 15:37:36;;;;;;;;;;;-0.90;75.30;;;;;;5025968;28;88643;-41
2022/01/12 15:40:03;;;;;;;;;;;-1.00;75.30;;;;;;5025880;28;86732;-41
2022/01/12 15:42:28;;;;;;;;;;;-0.90;75.40;;;;;;5025573;28;90725;-41
2022/01/12 15:44:54;;;;;;;;;;;-0.90;75.10;;;;;;5024459;28;90205;-41
2022/01/12 15:47:20;;;;;;;;;;;-0.90;75.20;;;;;;5025235;28;86889;-41
2022/01/12 15:49:45;;;;;;;;;;;-0.90;75.20;;;;;;5028200;28;89494;-41
2022/01/12 15:52:11;;;;;;;;;;;-0.90;75.10;;;;;;5025598;28;87023;-41
2022/01/12 15:54:36;;;;;;;;;;;-0.90;75.20;;;;;;5025805;28;88859;-41
2022/01/12 15:57:02;;;;;;;;;;;-0.90;75.10;;;;;;5025149;28;89359;-41
2022/01/12 15:59:28;;;;;;;;;;;-0.90;74.90;;;;;;5025582;28;87157;-41
2022/01/12 16:01:54;;;;;;;;;;;-0.90;75.00;;;;;;5026051;28;88930;-41
2022/01/12 16:04:20;;;;;;;;;;;-0.80;75.00;;;;;;5025160;28;89182;-41
2022/01/12 16:06:45;;;;;;;;;;;-0.90;75.00;;;;;;5025244;28;87152;-41
2022/01/12 16:09:11;;;;;;;;;;;-0.90;74.70;;;;;;5024778;28;88089;-41
2022/01/12 16:11:37;;;;;;;;;;;-0.90;74.60;;;;;;5028117;28;88149;-41
2022/01/12 16:14:04;;;;;;;;;;;-0.90;75.00;;;;;;5025312;28;89247;-41